Time;durP1;ratioP1;P1;durP2;ratioP2;P2;SDS_P1;SDS_P2;PMS_P1;PMS_P2;Temp;Humidity;BMP_temperature;BMP_pressure;BME280_temperature;BME280_humidity;BME280_pressure;Samples;Min_cycle;Max_cycle;Signal;HPM_P1;HPM_P2
2021/01/17 00:01:10;;;;;;;16.87;10.23;;;;;;;-6.68;59.08;101619.45;1684746;84;21334;-45
2021/01/17 00:03:39;;;;;;;26.17;12.82;;;;;;;-6.74;58.31;101617.81;1686462;84;21180;-46
2021/01/17 00:06:07;;;;;;;23.67;10.20;;;;;;;-6.76;58.48;101619.38;1684072;84;21185;-45
2021/01/17 00:08:35;;;;;;;16.57;9.83;;;;;;;-6.77;58.79;101621.83;1688883;84;21150;-46
2021/01/17 00:11:03;;;;;;;18.95;10.32;;;;;;;-6.81;58.30;101620.78;1680329;84;21201;-45
2021/01/17 00:13:32;;;;;;;22.73;11.55;;;;;;;-6.88;57.66;101626.23;1700008;84;21152;-45
2021/01/17 00:16:00;;;;;;;18.30;10.65;;;;;;;-6.94;56.87;101617.00;1695078;84;21133;-45
2021/01/17 00:18:28;;;;;;;25.05;12.33;;;;;;;-7.04;56.16;101623.92;1698304;84;21131;-45
2021/01/17 00:20:59;;;;;;;22.95;11.40;;;;;;;-7.10;56.51;101620.64;1697562;84;21196;-45
2021/01/17 00:23:27;;;;;;;18.55;9.90;;;;;;;-7.13;56.81;101630.55;1701947;84;21144;-45
2021/01/17 00:25:57;;;;;;;22.17;10.58;;;;;;;-7.15;56.47;101629.99;1687129;84;21176;-45
2021/01/17 00:28:25;;;;;;;18.75;10.10;;;;;;;-7.20;57.00;101622.11;1696541;84;21192;-45
2021/01/17 00:30:54;;;;;;;24.87;12.65;;;;;;;-7.24;56.62;101630.29;1693091;84;21178;-45
2021/01/17 00:33:23;;;;;;;22.58;11.12;;;;;;;-7.26;56.29;101636.91;1685506;84;21325;-45
2021/01/17 00:35:51;;;;;;;18.00;9.25;;;;;;;-7.29;56.69;101631.64;1700021;84;21305;-45
2021/01/17 00:38:20;;;;;;;22.22;12.50;;;;;;;-7.29;56.56;101631.64;1701351;84;21167;-45
2021/01/17 00:40:48;;;;;;;17.62;9.58;;;;;;;-7.32;56.45;101631.47;1701446;84;21171;-45
2021/01/17 00:43:16;;;;;;;23.02;11.35;;;;;;;-7.35;56.45;101635.05;1703897;84;21184;-45
2021/01/17 00:45:45;;;;;;;23.35;12.25;;;;;;;-7.37;55.49;101623.97;1685250;84;21193;-45
2021/01/17 00:48:14;;;;;;;14.05;8.33;;;;;;;-7.42;54.86;101635.45;1699344;83;21156;-45
2021/01/17 00:50:42;;;;;;;21.10;11.53;;;;;;;-7.50;55.29;101627.78;1713833;84;21171;-45
2021/01/17 00:53:12;;;;;;;19.37;10.30;;;;;;;-7.55;55.20;101640.50;1701709;84;21155;-45
2021/01/17 00:55:42;;;;;;;16.52;9.60;;;;;;;-7.58;55.42;101635.23;1693926;84;21160;-45
2021/01/17 00:58:13;;;;;;;21.60;11.00;;;;;;;-7.59;55.76;101635.64;1695472;84;21301;-45
2021/01/17 01:00:41;;;;;;;20.02;9.58;;;;;;;-7.58;55.63;101635.23;1706323;84;21521;-46
2021/01/17 01:03:19;;;;;;;15.05;8.03;;;;;;;-7.54;55.23;101634.64;1839960;77;22850;-45
2021/01/17 01:05:47;;;;;;;22.02;10.68;;;;;;;-7.59;55.35;101634.38;1818218;78;21116;-45
2021/01/17 01:08:16;;;;;;;17.62;9.65;;;;;;;-7.62;55.39;101637.96;1760716;80;21180;-45
2021/01/17 01:10:45;;;;;;;20.17;9.98;;;;;;;-7.66;54.83;101630.08;1761425;81;21168;-45
2021/01/17 01:13:13;;;;;;;22.77;10.58;;;;;;;-7.67;54.59;101633.02;1760412;81;21148;-46
2021/01/17 01:15:41;;;;;;;23.07;10.20;;;;;;;-7.69;55.40;101629.52;1740061;81;21165;-46
2021/01/17 01:18:10;;;;;;;16.65;9.33;;;;;;;-7.70;54.86;101621.81;1760897;81;21770;-46
2021/01/17 01:20:38;;;;;;;21.75;10.58;;;;;;;-7.70;54.71;101630.66;1761538;81;21305;-45
2021/01/17 01:23:06;;;;;;;21.50;10.43;;;;;;;-7.71;54.79;101636.50;1744823;81;21138;-46
2021/01/17 01:25:34;;;;;;;17.50;10.00;;;;;;;-7.75;54.11;101639.20;1757898;81;21154;-46
2021/01/17 01:28:04;;;;;;;20.80;10.18;;;;;;;-7.77;54.76;101636.11;1757032;81;21551;-46
2021/01/17 01:30:32;;;;;;;14.50;7.90;;;;;;;-7.76;55.46;101635.31;1751294;81;21173;-46
2021/01/17 01:33:02;;;;;;;18.98;10.00;;;;;;;-7.74;55.34;101642.23;1752336;81;21159;-46
2021/01/17 01:35:31;;;;;;;17.30;9.75;;;;;;;-7.70;55.35;101639.50;1756743;81;21168;-45
2021/01/17 01:37:59;;;;;;;19.73;9.50;;;;;;;-7.69;55.11;101637.09;1757716;81;21164;-46
2021/01/17 01:40:27;;;;;;;21.48;11.20;;;;;;;-7.66;55.29;101636.39;1757566;81;21144;-46
2021/01/17 01:42:55;;;;;;;15.30;8.83;;;;;;;-7.65;55.45;101641.95;1756531;81;21148;-46
2021/01/17 01:45:24;;;;;;;16.70;9.20;;;;;;;-7.61;55.44;101628.73;1760435;81;21159;-46
2021/01/17 01:47:52;;;;;;;20.05;9.95;;;;;;;-7.57;55.87;101626.89;1758390;81;21188;-46
2021/01/17 01:50:20;;;;;;;15.98;8.10;;;;;;;-7.53;56.06;101630.09;1757737;81;21132;-45
2021/01/17 01:52:50;;;;;;;18.85;10.00;;;;;;;-7.50;55.56;101635.36;1757369;81;21148;-45
2021/01/17 01:55:18;;;;;;;12.37;7.35;;;;;;;-7.50;55.05;101636.21;1738490;81;21173;-45
2021/01/17 01:57:46;;;;;;;18.95;9.45;;;;;;;-7.50;54.48;101651.80;1759407;81;21607;-46
2021/01/17 02:00:18;;;;;;;11.60;7.35;;;;;;;-7.55;54.69;101644.28;1760197;81;21172;-45
2021/01/17 02:02:46;;;;;;;22.13;9.98;;;;;;;-7.60;54.80;101658.27;1729473;81;21216;-45
2021/01/17 02:05:15;;;;;;;24.37;10.20;;;;;;;-7.63;55.18;101647.59;1710137;84;21159;-45
2021/01/17 02:08:17;;;;;;;14.03;7.95;;;;;;;-7.63;54.42;101651.77;1758595;80;21180;-45
2021/01/17 02:10:47;;;;;;;18.40;9.03;;;;;;;-7.65;54.33;101659.64;1758912;81;21178;-45
2021/01/17 02:13:26;;;;;;;11.28;7.25;;;;;;;-7.67;54.06;101650.70;1758839;81;21286;-45
2021/01/17 02:15:55;;;;;;;18.15;8.63;;;;;;;-7.68;54.52;101651.47;1758024;81;21273;-45
2021/01/17 02:18:24;;;;;;;20.15;9.75;;;;;;;-7.64;54.36;101660.11;1757671;81;21164;-45
2021/01/17 02:20:52;;;;;;;17.35;8.15;;;;;;;-7.64;54.48;101662.64;1757528;81;21128;-46
2021/01/17 02:23:29;;;;;;;15.43;8.98;;;;;;;-7.63;54.51;101666.55;1754019;81;21278;-46
2021/01/17 02:25:57;;;;;;;14.15;7.65;;;;;;;-7.62;54.25;101666.14;1757575;81;21572;-46
2021/01/17 02:28:25;;;;;;;18.45;9.08;;;;;;;-7.65;53.88;101668.48;1760661;81;21136;-46
2021/01/17 02:30:55;;;;;;;18.40;7.53;;;;;;;-7.71;53.62;101665.56;1760619;81;21147;-45
2021/01/17 02:33:35;;;;;;;17.30;9.30;;;;;;;-7.73;53.50;101669.64;1750661;81;21152;-46
2021/01/17 02:36:50;;;;;;;14.73;7.15;;;;;;;-7.77;53.70;101667.69;1759287;81;21136;-46
2021/01/17 02:39:36;;;;;;;21.95;9.58;;;;;;;-7.84;53.50;101674.36;1758824;81;21163;-46
2021/01/17 02:42:04;;;;;;;16.57;8.38;;;;;;;-7.93;53.09;101680.09;1763255;81;21163;-45
2021/01/17 02:44:33;;;;;;;21.90;9.73;;;;;;;-8.02;53.67;101691.72;1761247;81;21184;-44
2021/01/17 02:47:01;;;;;;;13.88;7.53;;;;;;;-8.09;52.99;101689.92;1747603;81;21139;-44
2021/01/17 02:49:31;;;;;;;17.27;9.13;;;;;;;-8.14;53.30;101683.33;1755395;81;21163;-45
2021/01/17 02:52:00;;;;;;;12.85;8.00;;;;;;;-8.18;53.73;101676.70;1756440;81;21187;-45
2021/01/17 02:54:36;;;;;;;20.02;9.73;;;;;;;-8.23;53.61;101683.08;1755380;80;21151;-44
2021/01/17 02:57:07;;;;;;;15.63;8.38;;;;;;;-8.25;53.62;101683.39;1755051;81;21159;-46
2021/01/17 02:59:41;;;;;;;;;;;;;;;-8.30;54.32;101677.18;1679826;85;21242;-44
2021/01/17 03:02:10;;;;;;;18.70;9.45;;;;;;;-8.24;54.22;101676.30;1673429;85;20247;-44
2021/01/17 03:04:50;;;;;;;;;;;;;;;-8.20;54.41;101675.72;1680845;85;21694;-44
2021/01/17 03:07:18;;;;;;;13.25;8.03;;;;;;;-8.20;54.25;101673.20;1665880;86;20217;-46
2021/01/17 03:09:47;;;;;;;17.60;9.13;;;;;;;-8.21;53.83;101670.17;1659196;86;21145;-44
2021/01/17 03:12:15;;;;;;;19.82;11.55;;;;;;;-8.24;53.79;101664.52;1663870;85;21208;-47
2021/01/17 03:14:43;;;;;;;12.85;8.08;;;;;;;-8.29;53.58;101657.45;1673238;85;21275;-46
2021/01/17 03:17:12;;;;;;;18.45;10.35;;;;;;;-8.35;53.33;101666.39;1673515;85;21318;-46
2021/01/17 03:19:40;;;;;;;19.37;9.58;;;;;;;-8.40;53.39;101656.73;1679911;85;21173;-46
2021/01/17 03:22:09;;;;;;;18.27;8.63;;;;;;;-8.44;52.89;101649.73;1679712;85;21895;-46
2021/01/17 03:24:37;;;;;;;23.18;9.83;;;;;;;-8.52;53.47;101649.22;1679609;85;21326;-46
2021/01/17 03:27:06;;;;;;;13.68;7.65;;;;;;;-8.49;54.52;101656.13;1679694;85;21330;-46
2021/01/17 03:29:34;;;;;;;17.15;8.78;;;;;;;-8.43;53.70;101648.56;1676755;85;21315;-46
2021/01/17 03:32:03;;;;;;;21.37;9.50;;;;;;;-8.43;53.39;101657.39;1677044;85;21160;-45
2021/01/17 03:34:32;;;;;;;16.70;9.58;;;;;;;-8.49;53.81;101656.98;1677714;85;21193;-46
2021/01/17 03:37:00;;;;;;;18.32;9.85;;;;;;;-8.51;53.69;101645.91;1679632;85;21183;-46
2021/01/17 03:39:28;;;;;;;18.42;8.75;;;;;;;-8.57;53.63;101645.49;1678174;85;21184;-46
2021/01/17 03:41:56;;;;;;;14.78;7.83;;;;;;;-8.61;53.39;101647.31;1677764;85;21572;-46
2021/01/17 03:44:24;;;;;;;19.20;10.00;;;;;;;-8.66;53.13;101644.89;1689296;85;21569;-45
2021/01/17 03:46:53;;;;;;;17.10;9.40;;;;;;;-8.73;53.50;101654.05;1676959;85;21208;-46
2021/01/17 03:49:21;;;;;;;12.58;7.80;;;;;;;-8.75;53.97;101653.07;1678714;85;21240;-46
2021/01/17 03:51:49;;;;;;;24.27;10.78;;;;;;;-8.73;53.73;101656.95;1678593;85;21164;-47
2021/01/17 03:54:17;;;;;;;22.20;11.45;;;;;;;-8.75;53.72;101655.59;1677620;85;21180;-46
2021/01/17 03:56:46;;;;;;;19.95;10.18;;;;;;;-8.77;54.22;101658.77;1704743;83;21343;-46
2021/01/17 03:59:19;;;;;;;20.92;9.80;;;;;;;-8.77;54.37;101653.35;1718878;83;21326;-46
2021/01/17 04:01:48;;;;;;;19.25;10.28;;;;;;;-8.78;53.76;101651.62;1719604;83;21205;-46
2021/01/17 04:04:17;;;;;;;13.32;7.95;;;;;;;-8.77;53.50;101658.39;1755000;81;21175;-46
2021/01/17 04:06:45;;;;;;;16.40;9.30;;;;;;;-8.79;53.26;101654.01;1754513;81;21132;-45
2021/01/17 04:09:15;;;;;;;17.48;8.30;;;;;;;-8.82;53.58;101652.14;1754175;81;21151;-45
2021/01/17 04:11:43;;;;;;;19.02;10.53;;;;;;;-8.83;53.34;101652.93;1754498;82;21190;-45
2021/01/17 04:14:12;;;;;;;16.17;7.80;;;;;;;-8.81;54.07;101651.39;1737491;82;21132;-45
2021/01/17 04:16:42;;;;;;;18.15;8.80;;;;;;;-8.78;53.56;101650.36;1754393;81;21284;-45
2021/01/17 04:19:11;;;;;;;20.15;9.13;;;;;;;-8.78;53.76;101656.66;1722799;81;21200;-45
2021/01/17 04:21:39;;;;;;;21.27;10.40;;;;;;;-8.75;54.22;101656.86;1757227;81;21163;-46
2021/01/17 04:24:08;;;;;;;22.60;10.90;;;;;;;-8.71;54.01;101657.94;1756534;81;21195;-45
2021/01/17 04:26:36;;;;;;;19.45;10.75;;;;;;;-8.68;53.91;101655.63;1746861;82;21170;-46
2021/01/17 04:29:05;;;;;;;19.12;10.08;;;;;;;-8.67;54.18;101655.73;1753273;81;21297;-46
2021/01/17 04:31:43;;;;;;;17.80;8.63;;;;;;;-8.65;53.89;101656.71;1741058;82;21174;-45
2021/01/17 04:34:11;;;;;;;15.18;8.45;;;;;;;-8.64;53.39;101655.08;1757931;81;21167;-45
2021/01/17 04:36:41;;;;;;;29.87;10.58;;;;;;;-8.69;53.40;101658.53;1772886;80;21298;-45
2021/01/17 04:39:09;;;;;;;16.00;8.48;;;;;;;-8.68;53.77;101654.37;1753262;81;21297;-45
2021/01/17 04:41:38;;;;;;;16.95;9.58;;;;;;;-8.64;53.90;101650.91;1739203;82;21266;-46
2021/01/17 04:44:06;;;;;;;18.85;8.23;;;;;;;-8.62;53.53;101645.96;1738114;81;21132;-46
2021/01/17 04:46:36;;;;;;;17.32;9.35;;;;;;;-8.64;53.41;101648.39;1745205;81;21163;-46
2021/01/17 04:49:07;;;;;;;21.52;10.80;;;;;;;-8.65;53.84;101653.30;1703223;82;21604;-46
2021/01/17 04:51:35;;;;;;;15.57;8.90;;;;;;;-8.65;52.88;101646.63;1744080;81;21171;-46
2021/01/17 04:54:04;;;;;;;15.80;8.35;;;;;;;-8.65;53.03;101643.22;1773046;80;21685;-46
2021/01/17 04:56:45;;;;;;;14.43;7.17;;;;;;;-8.68;53.46;101650.21;1756425;81;21176;-45
2021/01/17 04:59:14;;;;;;;;;;;;;;;-8.72;53.13;101643.21;1752074;82;21164;-43
2021/01/17 05:01:50;;;;;;;20.08;9.18;;;;;;;-8.75;53.80;101648.03;1748850;82;20138;-49
2021/01/17 05:05:01;;;;;;;20.50;9.38;;;;;;;-8.73;53.82;101646.48;1718843;81;21202;-46
2021/01/17 05:07:37;;;;;;;15.85;7.75;;;;;;;-8.74;52.92;101643.48;1640688;87;21672;-45
2021/01/17 05:10:12;;;;;;;14.25;7.62;;;;;;;-8.81;52.81;101647.61;1648097;87;21620;-46
2021/01/17 05:12:50;;;;;;;11.95;7.37;;;;;;;-8.86;53.06;101645.14;1648267;87;21318;-45
2021/01/17 05:15:22;;;;;;;14.55;8.43;;;;;;;-8.87;53.37;101645.92;1645703;87;21196;-46
2021/01/17 05:17:55;;;;;;;11.75;7.15;;;;;;;-8.91;52.85;101649.01;1648169;87;21351;-45
2021/01/17 05:20:23;;;;;;;12.82;7.85;;;;;;;-8.97;52.94;101651.10;1648356;87;21227;-45
2021/01/17 05:22:51;;;;;;;17.50;8.55;;;;;;;-9.02;52.37;101644.85;1636862;87;21318;-45
2021/01/17 05:25:19;;;;;;;20.35;9.45;;;;;;;-9.04;52.82;101647.65;1647787;87;21697;-45
2021/01/17 05:27:49;;;;;;;15.40;9.20;;;;;;;-9.07;52.61;101651.61;1648093;87;21330;-45
2021/01/17 05:30:18;;;;;;;17.05;8.75;;;;;;;-9.10;52.80;101648.48;1648152;87;21221;-45
2021/01/17 05:32:50;;;;;;;14.85;7.45;;;;;;;-9.09;52.91;101654.03;1648377;87;21228;-45
2021/01/17 05:35:24;;;;;;;19.02;8.83;;;;;;;-9.04;52.73;101647.65;1810231;79;22828;-45
2021/01/17 05:37:54;;;;;;;18.67;9.53;;;;;;;-9.08;52.95;101657.03;1774779;80;21160;-45
2021/01/17 05:40:22;;;;;;;15.80;7.53;;;;;;;-9.07;52.98;101648.72;1770771;80;21191;-45
2021/01/17 05:42:51;;;;;;;13.40;8.08;;;;;;;-9.05;52.46;101649.70;1777567;80;21160;-44
2021/01/17 05:45:21;;;;;;;14.63;7.28;;;;;;;-9.07;52.30;101647.83;1783155;80;21208;-45
2021/01/17 05:47:55;;;;;;;15.50;8.38;;;;;;;-9.06;53.15;101658.02;1783303;80;21537;-44
2021/01/17 05:50:24;;;;;;;21.40;9.75;;;;;;;-9.05;52.88;101654.73;1770896;80;21317;-44
2021/01/17 05:53:00;;;;;;;17.85;9.15;;;;;;;-9.03;53.59;101663.28;1783518;80;21163;-44
2021/01/17 05:55:43;;;;;;;16.77;8.38;;;;;;;-8.99;53.31;101655.55;1771498;80;21564;-45
2021/01/17 05:58:30;;;;;;;16.82;8.20;;;;;;;-8.96;53.21;101653.25;1770763;80;21203;-44
2021/01/17 06:01:16;;;;;;;14.25;7.62;;;;;;;-8.92;53.57;101662.37;1778173;80;21156;-45
2021/01/17 06:03:52;;;;;;;16.62;8.85;;;;;;;-8.87;53.38;101661.05;1779642;80;21572;-45
2021/01/17 06:06:29;;;;;;;16.17;9.45;;;;;;;-8.88;53.65;101658.44;1778769;80;21565;-44
2021/01/17 06:08:58;;;;;;;18.67;9.28;;;;;;;-8.81;53.60;101658.08;1768453;80;21167;-45
2021/01/17 06:11:26;;;;;;;14.85;8.28;;;;;;;-8.76;53.52;101660.16;1777411;80;21168;-45
2021/01/17 06:14:01;;;;;;;15.28;8.40;;;;;;;-8.71;53.02;101660.45;1773244;80;21293;-45
2021/01/17 06:16:39;;;;;;;21.02;9.15;;;;;;;-8.72;52.77;101664.65;1702802;83;21180;-45
2021/01/17 06:19:12;;;;;;;18.77;9.18;;;;;;;-8.75;52.30;101670.73;1709289;83;21197;-45
2021/01/17 06:21:47;;;;;;;16.60;8.33;;;;;;;-8.78;52.34;101661.70;1708989;83;21354;-45
2021/01/17 06:24:16;;;;;;;14.60;7.33;;;;;;;-8.74;52.95;101661.14;1706484;83;21216;-45
2021/01/17 06:26:44;;;;;;;16.32;7.90;;;;;;;-8.66;53.12;101663.80;1712954;83;21302;-45
2021/01/17 06:29:12;;;;;;;12.13;6.87;;;;;;;-8.59;52.52;101664.70;1707747;83;21363;-45
2021/01/17 06:31:40;;;;;;;15.03;8.43;;;;;;;-8.53;52.43;101676.88;1708296;83;21208;-45
2021/01/17 06:34:14;;;;;;;13.88;7.60;;;;;;;-8.51;52.10;101674.92;1704158;83;21355;-45
2021/01/17 06:36:46;;;;;;;10.88;6.78;;;;;;;-8.47;51.64;101682.34;1696490;84;21177;-45
2021/01/17 06:39:25;;;;;;;12.53;6.80;;;;;;;-8.50;52.13;101677.95;1696648;84;21141;-45
2021/01/17 06:41:55;;;;;;;14.73;8.18;;;;;;;-8.47;51.85;101677.30;1696567;84;21121;-45
2021/01/17 06:44:32;;;;;;;16.32;8.13;;;;;;;-8.51;52.05;101686.28;1694599;84;21262;-45
2021/01/17 06:47:01;;;;;;;14.47;7.90;;;;;;;-8.57;52.19;101687.13;1690034;84;21208;-44
2021/01/17 06:49:32;;;;;;;15.98;7.58;;;;;;;-8.61;52.25;101683.90;1692997;84;21206;-45
2021/01/17 06:52:04;;;;;;;18.57;8.30;;;;;;;-8.64;52.10;101692.91;1693127;84;21388;-45
2021/01/17 06:54:36;;;;;;;15.58;8.85;;;;;;;-8.68;52.50;101694.36;1693136;84;21177;-45
2021/01/17 06:57:05;;;;;;;17.00;8.88;;;;;;;-8.68;52.90;101684.27;1694087;84;21598;-45
2021/01/17 06:59:39;;;;;;;14.47;7.85;;;;;;;-8.64;52.75;101686.23;1684514;84;21169;-45
2021/01/17 07:02:19;;;;;;;19.73;9.38;;;;;;;-8.68;52.67;101681.75;1695975;84;21164;-45
2021/01/17 07:05:34;;;;;;;20.97;8.63;;;;;;;-8.72;53.00;101694.92;1692243;84;21157;-46
2021/01/17 07:08:38;;;;;;;13.78;6.72;;;;;;;-8.74;53.35;101687.63;1696240;84;21146;-45
2021/01/17 07:11:23;;;;;;;15.90;9.38;;;;;;;-8.74;53.23;101690.53;1812538;77;23105;-45
2021/01/17 07:13:52;;;;;;;18.77;9.58;;;;;;;-8.79;53.42;101690.58;1762306;81;21258;-44
2021/01/17 07:16:34;;;;;;;28.23;12.78;;;;;;;-8.79;53.32;101690.20;1760920;81;21139;-45
2021/01/17 07:19:04;;;;;;;;;;;;;;;-8.80;53.31;101692.25;1702488;84;21172;-45
2021/01/17 07:21:38;;;;;;;18.32;9.50;;;;;;;-8.80;53.52;101692.25;1715281;83;20147;-44
2021/01/17 07:24:08;;;;;;;19.07;10.55;;;;;;;-8.82;53.67;101697.55;1717624;83;22778;-45
2021/01/17 07:27:09;;;;;;;28.80;13.05;;;;;;;-8.77;54.01;101700.02;1717820;83;21155;-45
2021/01/17 07:29:37;;;;;;;23.10;10.53;;;;;;;-8.71;53.56;101708.00;1702765;84;21223;-44
2021/01/17 07:32:14;;;;;;;15.35;7.72;;;;;;;-8.70;53.29;101708.52;1712782;82;21243;-45
2021/01/17 07:34:52;;;;;;;23.02;10.70;;;;;;;-8.66;53.38;101707.95;1771645;79;23085;-45
2021/01/17 07:37:21;;;;;;;18.50;9.38;;;;;;;-8.69;53.50;101712.77;1737470;81;21132;-45
2021/01/17 07:39:54;;;;;;;19.70;11.07;;;;;;;-8.66;53.51;101710.48;1744695;82;21588;-45
2021/01/17 07:42:23;;;;;;;16.07;8.95;;;;;;;-8.63;53.58;101713.19;1740559;82;21144;-45
2021/01/17 07:44:54;;;;;;;23.95;12.65;;;;;;;-8.58;53.85;101719.45;1736198;82;21704;-45
2021/01/17 07:47:30;;;;;;;19.02;9.60;;;;;;;-8.51;54.15;101719.08;1737532;82;21168;-45
2021/01/17 07:49:58;;;;;;;18.40;9.35;;;;;;;-8.47;53.34;101718.52;1738341;82;21312;-45
2021/01/17 07:52:27;;;;;;;19.05;10.23;;;;;;;-8.49;53.11;101717.95;1737907;82;21282;-45
2021/01/17 07:54:56;;;;;;;22.05;10.40;;;;;;;-8.55;53.10;101720.91;1738238;82;21282;-45
2021/01/17 07:57:26;;;;;;;20.75;10.55;;;;;;;-8.56;53.38;101726.73;1733642;82;21147;-45
2021/01/17 07:59:55;;;;;;;23.80;11.33;;;;;;;-8.55;52.92;101729.73;1738018;82;21140;-45
2021/01/17 08:02:26;;;;;;;16.95;9.50;;;;;;;-8.58;52.94;101729.55;1734899;82;21313;-45
2021/01/17 08:04:55;;;;;;;26.15;11.00;;;;;;;-8.60;52.76;101731.45;1737672;82;21144;-47
2021/01/17 08:07:31;;;;;;;16.07;8.68;;;;;;;-8.59;53.53;101744.55;1737975;82;21274;-46
2021/01/17 08:10:01;;;;;;;20.55;10.82;;;;;;;-8.52;53.35;101743.84;1737906;82;21148;-46
2021/01/17 08:12:40;;;;;;;21.62;12.00;;;;;;;-8.46;53.00;101749.31;1732228;81;21366;-46
2021/01/17 08:15:16;;;;;;;19.48;11.03;;;;;;;-8.35;52.79;101751.31;1820003;79;22943;-45
2021/01/17 08:17:45;;;;;;;20.02;10.08;;;;;;;-8.34;53.21;101753.94;1780809;80;21593;-45
2021/01/17 08:20:28;;;;;;;23.07;10.65;;;;;;;-8.29;52.62;101755.91;1780075;80;21186;-44
2021/01/17 08:23:04;;;;;;;;;;;;;;;-8.30;52.68;101753.75;1782825;80;21176;-43
2021/01/17 08:25:49;;;;;;;24.32;12.20;;;;;;;-8.35;52.92;101753.47;1708556;83;20164;-46
2021/01/17 08:28:36;;;;;;;23.07;11.60;;;;;;;-8.36;52.83;101763.44;1709444;83;21612;-46
2021/01/17 08:31:37;;;;;;;35.83;14.83;;;;;;;-8.34;52.26;101760.25;1810245;79;22963;-45
2021/01/17 08:34:09;;;;;;;35.03;14.25;;;;;;;-8.36;52.55;101765.95;1780261;80;21273;-45
2021/01/17 08:36:38;;;;;;;21.48;10.25;;;;;;;-8.30;52.88;101773.09;1771515;80;21255;-46
2021/01/17 08:39:06;;;;;;;24.95;11.30;;;;;;;-8.23;52.50;101770.17;1783638;80;21140;-46
2021/01/17 08:41:35;;;;;;;22.52;11.50;;;;;;;-8.23;52.25;101775.22;1776825;80;21147;-46
2021/01/17 08:44:04;;;;;;;27.85;13.15;;;;;;;-8.17;52.45;101776.91;1773743;80;21172;-46
2021/01/17 08:46:38;;;;;;;17.05;9.40;;;;;;;-8.12;51.81;101774.32;1733434;80;21588;-46
2021/01/17 08:49:08;;;;;;;21.10;11.33;;;;;;;-8.09;51.66;101770.72;1700142;84;21184;-46
2021/01/17 08:51:37;;;;;;;26.35;12.85;;;;;;;-8.09;51.85;101771.61;1703220;84;21216;-46
2021/01/17 08:54:22;;;;;;;21.40;10.72;;;;;;;-8.10;51.72;101771.52;1709184;84;21619;-46
2021/01/17 08:56:51;;;;;;;17.70;10.35;;;;;;;-8.07;51.71;101770.06;1705919;84;21169;-46
2021/01/17 08:59:32;;;;;;;26.52;12.82;;;;;;;-8.06;51.67;101767.16;1706145;84;21203;-46
2021/01/17 09:02:00;;;;;;;21.40;11.88;;;;;;;-8.04;52.01;101766.88;1702936;84;21243;-46
2021/01/17 09:04:29;;;;;;;21.48;11.12;;;;;;;-7.93;52.17;101760.92;1708103;84;21580;-46
2021/01/17 09:06:57;;;;;;;29.52;13.83;;;;;;;-7.83;51.67;101763.28;1705483;84;21692;-46
2021/01/17 09:09:26;;;;;;;18.62;10.13;;;;;;;-7.83;51.70;101760.76;1706792;83;21172;-46
2021/01/17 09:11:54;;;;;;;20.05;10.05;;;;;;;-7.80;51.48;101757.16;1706262;84;21168;-46
2021/01/17 09:14:26;;;;;;;21.50;10.85;;;;;;;-7.79;51.33;101752.61;1682757;84;21163;-47
2021/01/17 09:17:08;;;;;;;20.15;10.70;;;;;;;-7.77;51.38;101752.32;1710804;84;21199;-46
2021/01/17 09:19:41;;;;;;;20.37;12.55;;;;;;;-7.74;50.62;101756.30;1819005;78;22654;-45
2021/01/17 09:22:10;;;;;;;17.17;9.98;;;;;;;-7.79;50.85;101758.52;1820773;78;21140;-45
2021/01/17 09:24:38;;;;;;;23.38;12.70;;;;;;;-7.76;51.06;101763.78;1812135;78;21136;-45
2021/01/17 09:27:09;;;;;;;20.45;11.43;;;;;;;-7.74;50.53;101758.83;1817096;78;21187;-45
2021/01/17 09:29:43;;;;;;;13.50;8.10;;;;;;;-7.70;50.93;101760.78;1812978;78;21097;-47
2021/01/17 09:32:15;;;;;;;23.92;12.50;;;;;;;-7.68;50.21;101756.70;1817255;78;21171;-45
2021/01/17 09:34:48;;;;;;;17.05;9.68;;;;;;;-7.70;50.29;101755.73;1694404;84;21160;-44
2021/01/17 09:37:19;;;;;;;20.15;10.40;;;;;;;-7.63;50.92;101756.26;1694312;84;21195;-46
2021/01/17 09:39:51;;;;;;;18.92;10.32;;;;;;;-7.57;50.48;101754.52;1687234;84;21234;-46
2021/01/17 09:42:23;;;;;;;16.42;10.98;;;;;;;-7.54;50.87;101760.63;1697497;84;21635;-46
2021/01/17 09:44:56;;;;;;;21.60;11.38;;;;;;;-7.61;50.65;101747.12;1685610;84;21584;-45
2021/01/17 09:47:25;;;;;;;27.13;14.58;;;;;;;-7.70;50.63;101741.83;1690372;84;21159;-45
2021/01/17 09:49:54;;;;;;;18.82;10.30;;;;;;;-7.78;51.16;101734.13;1691259;84;21215;-45
2021/01/17 09:52:24;;;;;;;20.08;11.22;;;;;;;-7.79;51.28;101725.67;1692045;84;21147;-45
2021/01/17 09:54:55;;;;;;;21.43;8.13;;;;;;;-7.75;50.91;101737.73;1691812;84;21155;-46
2021/01/17 09:57:26;;;;;;;24.15;11.65;;;;;;;-7.67;51.10;101733.20;1691644;84;21191;-47
2021/01/17 09:59:54;;;;;;;;;;;;;;;-7.66;51.29;101734.94;1691460;84;21191;-44
2021/01/17 10:02:27;;;;;;;16.75;10.20;;;;;;;-7.63;50.58;101732.63;1694058;84;20154;-47
2021/01/17 10:04:55;;;;;;;26.37;12.18;;;;;;;-7.58;51.18;101729.63;1694512;84;21191;-47
2021/01/17 10:07:23;;;;;;;16.85;9.13;;;;;;;-7.47;51.60;101735.38;1693163;84;21156;-46
2021/01/17 10:09:54;;;;;;;19.77;11.65;;;;;;;-7.40;51.14;101725.28;1692258;83;21172;-47
2021/01/17 10:12:24;;;;;;;24.07;10.98;;;;;;;-7.32;51.43;101722.86;1688882;84;21135;-47
2021/01/17 10:14:53;;;;;;;20.97;9.80;;;;;;;-7.27;51.19;101717.31;1729151;83;21219;-46
2021/01/17 10:17:22;;;;;;;15.45;9.00;;;;;;;-7.28;50.83;101715.95;1731942;82;21239;-46
2021/01/17 10:19:50;;;;;;;18.52;9.33;;;;;;;-7.32;50.78;101715.28;1724073;83;21199;-47
2021/01/17 10:22:19;;;;;;;18.73;9.20;;;;;;;-7.35;50.36;101713.42;1722093;82;21314;-46
2021/01/17 10:24:48;;;;;;;22.13;12.28;;;;;;;-7.38;50.75;101711.97;1710126;82;21366;-46
2021/01/17 10:27:17;;;;;;;15.25;9.48;;;;;;;-7.42;49.82;101716.34;1711654;83;21386;-47
2021/01/17 10:29:45;;;;;;;17.20;9.58;;;;;;;-7.46;49.52;101710.61;1722871;83;21273;-46
2021/01/17 10:32:15;;;;;;;20.82;10.35;;;;;;;-7.50;49.72;101707.39;1723021;82;21310;-46
2021/01/17 10:34:45;;;;;;;18.32;9.05;;;;;;;-7.56;49.82;101701.91;1723837;82;21779;-46
2021/01/17 10:37:18;;;;;;;15.98;9.38;;;;;;;-7.63;49.06;101706.98;1718625;82;21134;-46
2021/01/17 10:39:48;;;;;;;16.97;10.25;;;;;;;-7.72;49.62;101709.27;1745782;82;21302;-46
2021/01/17 10:42:30;;;;;;;17.32;8.60;;;;;;;-7.77;49.68;101705.17;1769506;81;21175;-46
2021/01/17 10:45:08;;;;;;;;;;;;;;;-7.79;50.49;101702.94;1773638;80;21184;-44
2021/01/17 10:47:45;;;;;;;25.80;12.25;;;;;;;-7.76;50.34;101694.69;1770819;80;20133;-46
2021/01/17 10:50:16;;;;;;;22.00;11.35;;;;;;;-7.75;50.42;101693.93;1747366;81;21124;-46
2021/01/17 10:53:08;;;;;;;15.63;9.00;;;;;;;-7.74;50.39;101693.14;1678268;85;21224;-46
2021/01/17 10:55:52;;;;;;;15.23;8.50;;;;;;;-7.62;50.63;101688.88;1813381;79;23173;-45
2021/01/17 10:58:41;;;;;;;22.02;11.30;;;;;;;-7.62;49.93;101681.30;1823515;78;21132;-45
2021/01/17 11:01:16;;;;;;;15.05;8.70;;;;;;;-7.59;49.91;101683.66;1818334;77;23065;-45
2021/01/17 11:03:45;;;;;;;22.73;11.25;;;;;;;-7.65;50.63;101678.59;1776662;80;21151;-45
2021/01/17 11:06:19;;;;;;;21.52;11.33;;;;;;;-7.55;50.33;101680.94;1754762;81;21180;-45
2021/01/17 11:08:50;;;;;;;18.02;8.85;;;;;;;-7.52;50.25;101682.38;1744777;81;21152;-45
2021/01/17 11:11:19;;;;;;;20.82;10.58;;;;;;;-7.48;49.76;101679.30;1786799;80;21180;-45
2021/01/17 11:14:00;;;;;;;22.40;12.20;;;;;;;-7.46;50.21;101680.27;1744685;81;21627;-45
2021/01/17 11:16:46;;;;;;;21.95;11.78;;;;;;;-7.41;49.99;101669.17;1763665;81;21172;-47
2021/01/17 11:19:15;;;;;;;18.90;10.45;;;;;;;-7.40;50.36;101660.83;1676370;84;21179;-47
2021/01/17 11:21:47;;;;;;;21.82;11.43;;;;;;;-7.32;50.10;101665.59;1676217;85;21243;-47
2021/01/17 11:24:22;;;;;;;20.82;11.35;;;;;;;-7.26;49.33;101668.52;1819967;79;22973;-45
2021/01/17 11:26:50;;;;;;;18.65;10.13;;;;;;;-7.39;49.48;101673.55;1779160;80;21592;-45
2021/01/17 11:29:19;;;;;;;23.07;12.43;;;;;;;-7.45;49.62;101669.38;1776943;80;21180;-45
2021/01/17 11:31:48;;;;;;;17.42;10.43;;;;;;;-7.48;50.02;101662.88;1777183;80;21216;-45
2021/01/17 11:34:16;;;;;;;16.67;9.78;;;;;;;-7.47;50.29;101662.97;1776466;80;21350;-45
2021/01/17 11:36:45;;;;;;;21.52;10.38;;;;;;;-7.40;50.01;101669.30;1777205;80;21133;-45
2021/01/17 11:39:20;;;;;;;17.12;9.68;;;;;;;-7.35;49.95;101665.39;1773685;80;21179;-45